createdAt,value
2022-10-13T00:01:13.236Z,62.30
2022-10-13T00:03:41.879Z,62.42
2022-10-13T00:06:10.817Z,62.70
2022-10-13T00:08:38.492Z,62.23
2022-10-13T00:11:16.822Z,62.13
2022-10-13T00:13:44.661Z,62.29
2022-10-13T00:16:12.644Z,62.30
2022-10-13T00:18:40.405Z,62.57
2022-10-13T00:21:09.337Z,62.44
2022-10-13T00:23:37.017Z,62.11
2022-10-13T00:26:05.556Z,62.27
2022-10-13T00:28:33.267Z,62.44
2022-10-13T00:31:00.787Z,62.46
2022-10-13T00:33:28.268Z,62.35
2022-10-13T00:35:55.694Z,62.76
2022-10-13T00:38:23.456Z,62.48
2022-10-13T00:40:54.782Z,62.15
2022-10-13T00:43:24.490Z,62.15
2022-10-13T00:45:52.272Z,62.43
2022-10-13T00:48:25.212Z,62.37
2022-10-13T00:50:52.709Z,62.59
2022-10-13T00:53:21.755Z,62.45
2022-10-13T00:55:49.260Z,62.55
2022-10-13T00:58:17.125Z,62.62
2022-10-13T01:00:45.827Z,62.28
2022-10-13T01:03:15.094Z,62.49
2022-10-13T01:05:42.529Z,62.05
2022-10-13T01:08:10.235Z,61.99
2022-10-13T01:11:07.751Z,62.09
2022-10-13T01:13:50.964Z,62.40
2022-10-13T01:16:21.307Z,62.18
2022-10-13T01:19:03.422Z,62.25
2022-10-13T01:21:39.672Z,62.65
2022-10-13T01:24:32.641Z,62.21
2022-10-13T01:27:04.839Z,62.29
2022-10-13T01:29:46.373Z,62.41
2022-10-13T01:32:37.616Z,62.42
2022-10-13T01:35:25.038Z,62.39
2022-10-13T01:38:07.945Z,62.48
2022-10-13T01:41:13.571Z,62.57
2022-10-13T01:43:57.786Z,62.09
2022-10-13T01:46:28.921Z,62.13
2022-10-13T01:48:56.560Z,62.46
2022-10-13T01:51:24.754Z,62.27
2022-10-13T01:53:53.783Z,62.43
2022-10-13T01:56:21.291Z,62.28
2022-10-13T01:58:51.605Z,62.31
2022-10-13T02:01:40.188Z,62.15
2022-10-13T02:04:30.793Z,62.03
2022-10-13T02:07:10.348Z,62.28
2022-10-13T02:09:56.366Z,62.18
2022-10-13T02:12:49.727Z,62.21
2022-10-13T02:15:19.956Z,62.13
2022-10-13T02:17:47.626Z,61.79
2022-10-13T02:20:15.389Z,62.10
2022-10-13T02:22:45.102Z,61.85
2022-10-13T02:25:12.639Z,62.16
2022-10-13T02:27:42.792Z,62.03
2022-10-13T02:30:10.895Z,61.78
2022-10-13T02:32:38.377Z,62.05
2022-10-13T02:35:06.209Z,61.81
2022-10-13T02:37:33.772Z,62.01
2022-10-13T02:40:01.707Z,61.88
2022-10-13T02:42:29.288Z,61.78
2022-10-13T02:45:03.804Z,61.83
2022-10-13T02:47:31.240Z,61.83
2022-10-13T02:49:59.885Z,61.93
2022-10-13T02:52:27.388Z,61.89
2022-10-13T02:54:54.921Z,62.00
2022-10-13T02:57:22.678Z,61.89
2022-10-13T02:59:50.370Z,61.87
2022-10-13T03:02:18.208Z,61.52
2022-10-13T03:04:46.034Z,61.89
2022-10-13T03:07:13.464Z,62.07
2022-10-13T03:09:40.952Z,61.97
2022-10-13T03:12:08.518Z,62.04
2022-10-13T03:14:36.117Z,61.81
2022-10-13T03:17:03.613Z,62.00
2022-10-13T03:19:31.248Z,62.03
2022-10-13T03:21:58.781Z,61.69
2022-10-13T03:24:26.640Z,62.02
2022-10-13T03:26:54.419Z,61.70
2022-10-13T03:29:23.324Z,61.36
2022-10-13T03:31:50.848Z,61.38
2022-10-13T03:34:20.279Z,61.61
2022-10-13T03:36:47.968Z,61.51
2022-10-13T03:39:15.461Z,61.94
2022-10-13T03:41:43.090Z,61.81
2022-10-13T03:44:13.618Z,61.51
2022-10-13T03:46:41.020Z,61.17
2022-10-13T03:49:09.914Z,61.49
2022-10-13T03:51:37.374Z,61.81
2022-10-13T03:54:04.924Z,61.53
2022-10-13T03:56:32.386Z,61.50
2022-10-13T03:59:00.331Z,61.28
2022-10-13T04:01:29.038Z,61.36
2022-10-13T04:03:56.605Z,61.59
2022-10-13T04:06:24.375Z,61.49
2022-10-13T04:08:52.042Z,61.48
2022-10-13T04:11:19.587Z,61.45
2022-10-13T04:13:51.577Z,61.48
2022-10-13T04:16:23.933Z,61.62
2022-10-13T04:18:53.059Z,61.63
2022-10-13T04:21:20.530Z,61.11
2022-10-13T04:23:48.356Z,61.11
2022-10-13T04:26:18.259Z,61.20
2022-10-13T04:28:46.609Z,61.11
2022-10-13T04:31:14.201Z,61.02
2022-10-13T04:33:41.716Z,61.03
2022-10-13T04:36:10.487Z,61.12
2022-10-13T04:38:38.078Z,61.18
2022-10-13T04:41:06.156Z,60.93
2022-10-13T04:43:33.851Z,61.36
2022-10-13T04:46:13.193Z,61.18
2022-10-13T04:48:40.858Z,61.34
2022-10-13T04:51:10.806Z,61.03
2022-10-13T04:53:38.361Z,60.80
2022-10-13T04:56:09.799Z,61.20
2022-10-13T04:58:37.748Z,60.71
2022-10-13T05:01:06.769Z,60.69
2022-10-13T05:03:34.577Z,60.74
2022-10-13T05:06:02.062Z,60.79
2022-10-13T05:08:29.483Z,61.05
2022-10-13T05:10:58.391Z,61.28
2022-10-13T05:13:26.155Z,61.21
2022-10-13T05:15:58.015Z,61.27
2022-10-13T05:18:25.524Z,60.96
2022-10-13T05:20:53.135Z,60.90
2022-10-13T05:23:20.601Z,60.93
2022-10-13T05:25:48.002Z,61.27
2022-10-13T05:28:18.599Z,61.14
2022-10-13T05:30:46.071Z,61.25
2022-10-13T05:33:13.532Z,61.07
2022-10-13T05:35:41.057Z,61.39
2022-10-13T05:38:08.544Z,61.21
2022-10-13T05:40:36.022Z,61.47
2022-10-13T05:43:03.995Z,61.21
2022-10-13T05:45:32.675Z,60.99
2022-10-13T05:48:00.224Z,61.14
2022-10-13T05:50:27.675Z,60.82
2022-10-13T05:52:55.124Z,60.60
2022-10-13T05:55:22.541Z,60.82
2022-10-13T05:57:50.071Z,60.62
2022-10-13T06:00:18.959Z,60.77
2022-10-13T06:02:48.939Z,60.92
2022-10-13T06:05:17.793Z,61.02
2022-10-13T06:07:45.367Z,61.20
2022-10-13T06:10:12.947Z,61.09
2022-10-13T06:12:40.429Z,61.00
2022-10-13T06:15:08.592Z,61.02
2022-10-13T06:17:37.980Z,60.90
2022-10-13T06:20:06.360Z,61.16
2022-10-13T06:22:34.236Z,61.43
2022-10-13T06:25:02.016Z,61.35
2022-10-13T06:27:29.580Z,61.44
2022-10-13T06:29:58.003Z,61.33
2022-10-13T06:32:25.468Z,61.43
2022-10-13T06:34:53.001Z,61.04
2022-10-13T06:37:24.649Z,61.11
2022-10-13T06:39:54.694Z,60.71
2022-10-13T06:42:23.280Z,61.18
2022-10-13T06:45:09.040Z,61.09
2022-10-13T06:47:36.470Z,61.12
2022-10-13T06:50:04.183Z,61.39
2022-10-13T06:52:31.594Z,61.72
2022-10-13T06:55:01.125Z,61.84
2022-10-13T06:57:29.883Z,61.84
2022-10-13T06:59:58.185Z,61.64
2022-10-13T07:02:25.735Z,61.70
2022-10-13T07:04:53.233Z,62.20
2022-10-13T07:07:20.754Z,61.92
2022-10-13T07:09:49.481Z,61.89
2022-10-13T07:12:17.153Z,62.04
2022-10-13T07:14:44.839Z,62.54
2022-10-13T07:17:12.275Z,62.69
2022-10-13T07:19:39.776Z,62.34
2022-10-13T07:22:07.219Z,62.51
2022-10-13T07:24:34.750Z,62.77
2022-10-13T07:27:07.458Z,62.87
2022-10-13T07:29:38.491Z,63.06
2022-10-13T07:32:06.576Z,63.14
2022-10-13T07:34:34.638Z,63.99
2022-10-13T07:37:02.163Z,64.61
2022-10-13T07:39:29.965Z,64.65
2022-10-13T07:41:57.729Z,64.88
2022-10-13T07:44:27.188Z,64.87
2022-10-13T07:46:54.698Z,65.02
2022-10-13T07:49:22.909Z,64.72
2022-10-13T07:51:50.370Z,64.66
2022-10-13T07:54:22.550Z,64.88
2022-10-13T07:56:52.765Z,64.72
2022-10-13T07:59:20.227Z,64.74
2022-10-13T08:01:47.871Z,64.66
2022-10-13T08:04:15.386Z,64.81
2022-10-13T08:06:43.008Z,64.75
2022-10-13T08:09:10.508Z,64.97
2022-10-13T08:11:38.375Z,63.74
2022-10-13T08:14:05.855Z,64.47
2022-10-13T08:16:33.417Z,64.90
2022-10-13T08:19:00.843Z,64.68
2022-10-13T08:24:17.531Z,64.71
2022-10-13T08:26:46.371Z,64.19
2022-10-13T08:29:22.069Z,64.97
2022-10-13T08:31:54.558Z,65.35
2022-10-13T08:34:25.359Z,65.19
2022-10-13T08:36:54.475Z,64.04
2022-10-13T08:39:23.018Z,64.60
2022-10-13T08:41:50.764Z,64.35
2022-10-13T08:47:27.329Z,64.58
2022-10-13T08:49:59.955Z,64.86
2022-10-13T08:52:42.984Z,64.51
2022-10-13T08:55:36.828Z,65.21
2022-10-13T08:58:10.496Z,64.84
2022-10-13T09:00:38.053Z,65.30
2022-10-13T09:03:23.035Z,64.61
2022-10-13T09:05:57.714Z,64.17
2022-10-13T09:08:25.168Z,64.68
2022-10-13T09:10:53.262Z,65.36
2022-10-13T09:13:25.005Z,65.80
2022-10-13T09:15:56.420Z,65.88
2022-10-13T09:18:28.694Z,65.64
2022-10-13T09:21:16.761Z,64.27
2022-10-13T09:23:44.179Z,64.36
2022-10-13T09:26:27.628Z,64.47
2022-10-13T09:28:55.163Z,63.70
2022-10-13T09:31:27.492Z,63.43
2022-10-13T09:34:03.398Z,64.32
2022-10-13T09:36:31.391Z,63.61
2022-10-13T09:39:13.102Z,64.02
2022-10-13T09:41:41.951Z,63.69
2022-10-13T09:44:13.471Z,63.66
2022-10-13T09:46:51.609Z,64.45
2022-10-13T09:49:25.799Z,65.97
2022-10-13T09:51:58.053Z,63.97
2022-10-13T09:54:51.124Z,63.97
2022-10-13T09:57:36.780Z,63.00
2022-10-13T10:00:19.577Z,63.08
2022-10-13T10:02:49.340Z,64.57
2022-10-13T10:05:29.043Z,65.56
2022-10-13T10:07:58.973Z,64.50
2022-10-13T10:10:33.275Z,64.51
2022-10-13T10:13:03.326Z,65.40
2022-10-13T10:15:48.349Z,64.53
2022-10-13T10:18:40.912Z,64.95
2022-10-13T10:21:39.429Z,66.21
2022-10-13T10:24:27.217Z,64.92
2022-10-13T10:27:13.627Z,64.61
2022-10-13T10:29:51.110Z,64.08
2022-10-13T10:32:49.264Z,63.49
2022-10-13T10:35:37.370Z,64.59
2022-10-13T10:38:13.740Z,64.15
2022-10-13T10:40:50.581Z,63.99
2022-10-13T10:43:41.601Z,63.17
2022-10-13T10:46:36.589Z,64.23
2022-10-13T10:49:18.686Z,64.19
2022-10-13T10:51:46.211Z,64.80
2022-10-13T10:54:25.032Z,64.99
2022-10-13T10:57:01.115Z,65.02
2022-10-13T10:59:43.502Z,64.84
2022-10-13T11:02:24.062Z,65.03
2022-10-13T11:04:52.688Z,65.35
2022-10-13T11:07:23.514Z,64.84
2022-10-13T11:09:57.444Z,64.59
2022-10-13T11:12:26.771Z,64.34
2022-10-13T11:14:54.241Z,64.06
2022-10-13T11:17:37.052Z,64.38
2022-10-13T11:20:22.316Z,64.65
2022-10-13T11:22:58.760Z,65.01
2022-10-13T11:25:36.520Z,65.22
2022-10-13T11:28:43.087Z,65.31
2022-10-13T11:31:14.946Z,65.47
2022-10-13T11:33:43.015Z,64.99
2022-10-13T11:36:34.942Z,64.89
2022-10-13T11:39:21.625Z,65.22
2022-10-13T11:42:09.937Z,65.37
2022-10-13T11:44:56.218Z,65.59
2022-10-13T11:48:18.945Z,65.20
2022-10-13T11:51:13.892Z,65.21
2022-10-13T11:53:47.621Z,65.25
2022-10-13T11:56:44.946Z,64.98
2022-10-13T11:59:20.669Z,64.90
2022-10-13T12:01:48.771Z,64.89
2022-10-13T12:04:16.205Z,65.26
2022-10-13T12:06:44.923Z,64.96
2022-10-13T12:09:19.757Z,64.86
2022-10-13T12:11:47.964Z,64.88
2022-10-13T12:14:24.209Z,65.31
2022-10-13T12:19:28.768Z,65.03
2022-10-13T12:22:00.539Z,64.91
2022-10-13T12:24:29.222Z,65.02
2022-10-13T12:26:56.844Z,65.13
2022-10-13T12:41:03.364Z,66.94
2022-10-13T12:43:31.003Z,66.22
2022-10-13T12:45:58.566Z,65.81
2022-10-13T12:48:51.982Z,65.13
2022-10-13T12:51:23.583Z,64.96
2022-10-13T12:53:51.065Z,65.29
2022-10-13T12:56:27.545Z,65.31
2022-10-13T12:58:55.665Z,65.56
2022-10-13T13:01:28.525Z,65.32
2022-10-13T13:03:58.165Z,65.59
2022-10-13T13:06:30.196Z,65.58
2022-10-13T13:09:19.918Z,65.67
2022-10-13T13:11:47.488Z,65.73
2022-10-13T13:14:36.193Z,65.73
2022-10-13T13:17:20.156Z,65.58
2022-10-13T13:20:00.491Z,65.97
2022-10-13T13:22:28.005Z,66.05
2022-10-13T13:24:55.588Z,65.83
2022-10-13T13:27:27.423Z,65.77
2022-10-13T13:29:55.191Z,66.18
2022-10-13T13:32:24.945Z,65.80
2022-10-13T13:34:52.425Z,65.96
2022-10-13T13:37:27.764Z,65.92
2022-10-13T13:39:55.351Z,66.25
2022-10-13T13:42:22.839Z,65.83
2022-10-13T13:44:50.315Z,66.10
2022-10-13T13:47:22.028Z,66.24
2022-10-13T13:49:50.598Z,66.15
2022-10-13T13:52:18.228Z,66.20
2022-10-13T13:54:46.038Z,66.08
2022-10-13T13:57:13.885Z,66.21
2022-10-13T13:59:41.631Z,66.30
2022-10-13T14:02:16.951Z,66.45
2022-10-13T14:04:44.510Z,66.69
2022-10-13T14:07:12.360Z,66.36
2022-10-13T14:09:39.981Z,66.58
2022-10-13T14:12:09.023Z,66.90
2022-10-13T14:14:36.483Z,66.71
2022-10-13T14:17:04.245Z,66.96
2022-10-13T14:19:34.449Z,66.82
2022-10-13T14:22:05.818Z,66.92
2022-10-13T14:24:35.996Z,66.77
2022-10-13T14:27:05.219Z,66.76
2022-10-13T14:29:35.222Z,66.89
2022-10-13T14:32:02.663Z,67.07
2022-10-13T14:34:30.371Z,67.13
2022-10-13T14:36:57.840Z,67.32
2022-10-13T14:39:25.279Z,67.17
2022-10-13T14:41:52.750Z,67.41
2022-10-13T14:44:23.143Z,67.43
2022-10-13T14:46:50.758Z,67.22
2022-10-13T14:49:18.273Z,67.08
2022-10-13T14:51:48.885Z,67.41
2022-10-13T14:54:17.280Z,67.42
2022-10-13T14:56:44.985Z,67.35
2022-10-13T14:59:12.580Z,67.46
2022-10-13T15:01:41.522Z,67.40
2022-10-13T15:04:09.290Z,67.29
2022-10-13T15:06:39.321Z,67.55
2022-10-13T15:09:10.224Z,67.25
2022-10-13T15:11:37.919Z,67.35
2022-10-13T15:14:08.004Z,67.59
2022-10-13T15:16:37.021Z,67.42
2022-10-13T15:19:04.833Z,67.63
2022-10-13T15:21:32.291Z,67.77
2022-10-13T15:23:59.701Z,67.90
2022-10-13T15:26:27.162Z,67.41
2022-10-13T15:28:54.695Z,67.50
2022-10-13T15:31:22.290Z,67.45
2022-10-13T15:33:53.285Z,67.61
2022-10-13T15:36:22.014Z,67.51
2022-10-13T15:38:49.690Z,67.19
2022-10-13T15:41:17.457Z,67.87
2022-10-13T15:43:44.909Z,66.90
2022-10-13T15:46:21.002Z,67.96
2022-10-13T15:48:51.657Z,67.57
2022-10-13T15:51:20.379Z,68.01
2022-10-13T15:53:48.099Z,66.58
2022-10-13T15:56:15.948Z,68.10
2022-10-13T15:58:43.776Z,67.42
2022-10-13T16:01:12.072Z,67.52
2022-10-13T16:03:39.715Z,67.07
2022-10-13T16:06:08.541Z,67.24
2022-10-13T16:08:39.782Z,67.22
2022-10-13T16:11:08.735Z,68.51
2022-10-13T16:13:38.904Z,68.00
2022-10-13T16:16:06.646Z,67.98
2022-10-13T16:18:36.219Z,67.68
2022-10-13T16:21:18.273Z,68.19
2022-10-13T16:23:47.060Z,68.11
2022-10-13T16:26:14.917Z,66.92
2022-10-13T16:28:42.407Z,65.59
2022-10-13T16:31:13.812Z,66.17
2022-10-13T16:33:43.103Z,66.68
2022-10-13T16:36:12.845Z,67.72
2022-10-13T16:38:40.962Z,66.13
2022-10-13T16:41:11.868Z,66.85
2022-10-13T16:43:39.294Z,65.39
2022-10-13T16:46:08.338Z,66.43
2022-10-13T16:48:35.809Z,66.40
2022-10-13T16:51:07.401Z,65.61
2022-10-13T16:53:35.083Z,66.14
2022-10-13T16:56:08.504Z,65.55
2022-10-13T16:58:35.982Z,65.35
2022-10-13T17:01:05.584Z,64.60
2022-10-13T17:03:33.165Z,64.14
2022-10-13T17:06:00.602Z,64.69
2022-10-13T17:08:28.080Z,64.90
2022-10-13T17:10:58.336Z,64.48
2022-10-13T17:13:26.210Z,64.79
2022-10-13T17:15:54.884Z,64.66
2022-10-13T17:18:22.441Z,64.99
2022-10-13T17:20:57.407Z,65.42
2022-10-13T17:23:25.121Z,64.88
2022-10-13T17:25:53.391Z,64.97
2022-10-13T17:28:20.991Z,65.63
2022-10-13T17:31:02.577Z,65.53
2022-10-13T17:33:30.828Z,65.40
2022-10-13T17:36:01.842Z,65.55
2022-10-13T17:38:29.772Z,65.34
2022-10-13T17:41:04.799Z,65.69
2022-10-13T17:43:33.368Z,65.42
2022-10-13T17:46:36.712Z,65.12
2022-10-13T17:49:07.080Z,64.66
2022-10-13T17:51:34.758Z,64.17
2022-10-13T17:54:02.297Z,64.03
2022-10-13T17:56:30.093Z,64.37
2022-10-13T17:58:57.642Z,64.41
2022-10-13T18:01:27.578Z,64.58
2022-10-13T18:03:56.558Z,64.38
2022-10-13T18:06:29.227Z,64.33
2022-10-13T18:08:59.237Z,64.43
2022-10-13T18:11:26.680Z,64.11
2022-10-13T18:13:54.116Z,64.40
2022-10-13T18:16:22.998Z,63.92
2022-10-13T18:18:51.272Z,64.10
2022-10-13T18:21:22.366Z,64.17
2022-10-13T18:23:54.886Z,64.02
2022-10-13T18:26:22.916Z,64.15
2022-10-13T18:28:50.948Z,64.00
2022-10-13T18:31:22.110Z,64.08
2022-10-13T18:33:51.821Z,64.19
2022-10-13T18:36:24.588Z,64.29
2022-10-13T18:38:56.666Z,64.61
2022-10-13T18:41:24.483Z,64.45
2022-10-13T18:43:51.974Z,64.40
2022-10-13T18:46:20.862Z,64.21
2022-10-13T18:48:48.757Z,64.51
2022-10-13T18:51:17.334Z,64.31
2022-10-13T18:54:03.156Z,64.60
2022-10-13T18:56:33.771Z,64.65
2022-10-13T18:59:01.708Z,64.49
2022-10-13T19:01:30.905Z,64.69
2022-10-13T19:03:58.472Z,64.64
2022-10-13T19:06:27.113Z,65.06
2022-10-13T19:08:56.460Z,64.47
2022-10-13T19:11:24.339Z,64.58
2022-10-13T19:13:51.908Z,64.62
2022-10-13T19:16:21.128Z,64.67
2022-10-13T19:18:48.846Z,64.54
2022-10-13T19:21:17.535Z,64.76
2022-10-13T19:23:44.996Z,64.52
2022-10-13T19:26:26.166Z,64.84
2022-10-13T19:28:54.710Z,64.57
2022-10-13T19:31:23.282Z,64.38
2022-10-13T19:33:52.537Z,65.02
2022-10-13T19:36:25.421Z,64.73
2022-10-13T19:38:54.368Z,64.90
2022-10-13T19:41:21.917Z,64.63
2022-10-13T19:43:49.813Z,64.47
2022-10-13T19:46:17.792Z,64.85
2022-10-13T19:48:45.261Z,64.52
2022-10-13T19:51:12.806Z,64.48
2022-10-13T19:53:40.837Z,64.24
2022-10-13T19:56:08.566Z,64.51
2022-10-13T19:58:36.416Z,64.55
2022-10-13T20:01:05.002Z,64.47
2022-10-13T20:03:32.534Z,64.57
2022-10-13T20:06:04.062Z,64.53
2022-10-13T20:08:31.588Z,64.30
2022-10-13T20:11:00.673Z,64.39
2022-10-13T20:13:28.095Z,64.29
2022-10-13T20:16:05.495Z,64.37
2022-10-13T20:18:32.881Z,64.46
2022-10-13T20:21:08.019Z,64.75
2022-10-13T20:23:35.515Z,64.30
2022-10-13T20:26:03.962Z,64.51
2022-10-13T20:28:39.180Z,64.84
2022-10-13T20:31:10.530Z,64.53
2022-10-13T20:33:37.960Z,64.26
2022-10-13T20:36:06.967Z,64.37
2022-10-13T20:38:37.880Z,64.03
2022-10-13T20:41:09.222Z,64.36
2022-10-13T20:43:37.136Z,64.48
2022-10-13T20:46:05.817Z,64.46
2022-10-13T20:48:57.777Z,64.63
2022-10-13T20:51:22.451Z,64.33
2022-10-13T20:53:49.875Z,64.38
2022-10-13T20:56:21.946Z,64.27
2022-10-13T20:58:49.586Z,64.24
2022-10-13T21:01:17.723Z,64.29
2022-10-13T21:03:45.217Z,64.38
2022-10-13T21:06:24.456Z,64.33
2022-10-13T21:09:02.762Z,64.36
2022-10-13T21:11:40.455Z,64.39
2022-10-13T21:14:18.700Z,64.50
2022-10-13T21:16:56.832Z,64.48
2022-10-13T21:19:35.633Z,64.67
2022-10-13T21:22:15.223Z,64.58
2022-10-13T21:24:53.023Z,64.50
2022-10-13T21:27:31.224Z,64.52
2022-10-13T21:30:10.073Z,64.54
2022-10-13T21:32:47.687Z,64.17
2022-10-13T21:35:25.937Z,64.03
2022-10-13T21:38:04.047Z,64.19
2022-10-13T21:40:40.904Z,64.37
2022-10-13T21:43:20.569Z,64.01
2022-10-13T21:46:14.138Z,64.26
2022-10-13T21:48:55.656Z,64.41
2022-10-13T21:51:38.523Z,64.17
2022-10-13T21:54:17.198Z,64.09
2022-10-13T21:56:55.383Z,64.40
2022-10-13T21:59:34.451Z,64.58
2022-10-13T22:02:13.487Z,64.64
2022-10-13T22:04:51.672Z,64.29
2022-10-13T22:07:29.842Z,64.05
2022-10-13T22:10:08.395Z,63.63
2022-10-13T22:12:46.227Z,63.70
2022-10-13T22:15:24.488Z,64.13
2022-10-13T22:18:02.732Z,64.05
2022-10-13T22:20:42.447Z,64.35
2022-10-13T22:23:20.650Z,63.77
2022-10-13T22:25:58.864Z,63.65
2022-10-13T22:28:37.590Z,64.10
2022-10-13T22:31:17.463Z,64.21
2022-10-13T22:33:55.160Z,63.92
2022-10-13T22:36:33.298Z,64.06
2022-10-13T22:39:11.473Z,63.95
2022-10-13T22:41:51.413Z,63.70
2022-10-13T22:44:29.471Z,63.88
2022-10-13T22:47:07.616Z,63.81
2022-10-13T22:49:45.851Z,64.03
2022-10-13T22:52:28.806Z,64.02
2022-10-13T22:55:07.593Z,63.82
2022-10-13T22:57:45.442Z,64.23
2022-10-13T23:00:23.407Z,63.97
2022-10-13T23:03:02.125Z,63.99
2022-10-13T23:05:43.673Z,63.82
2022-10-13T23:08:21.335Z,64.02
2022-10-13T23:10:59.484Z,64.06
2022-10-13T23:13:39.580Z,63.92
2022-10-13T23:16:20.036Z,63.33
2022-10-13T23:18:58.765Z,63.64
2022-10-13T23:21:37.042Z,63.47
2022-10-13T23:24:15.238Z,63.36
2022-10-13T23:26:53.476Z,63.25
2022-10-13T23:29:31.660Z,63.35
2022-10-13T23:32:10.155Z,63.48
2022-10-13T23:34:47.987Z,63.48
2022-10-13T23:37:26.206Z,63.09
2022-10-13T23:40:04.800Z,63.09
2022-10-13T23:42:42.623Z,63.51
2022-10-13T23:45:20.952Z,63.30
2022-10-13T23:47:59.987Z,63.16
2022-10-13T23:50:40.509Z,63.49
2022-10-13T23:53:18.717Z,63.17
2022-10-13T23:55:56.765Z,63.54
2022-10-13T23:58:40.965Z,63.36
